Time;durP1;ratioP1;P1;durP2;ratioP2;P2;SDS_P1;SDS_P2;PMS_P1;PMS_P2;Temp;Humidity;BMP_temperature;BMP_pressure;BME280_temperature;BME280_humidity;BME280_pressure;Samples;Min_cycle;Max_cycle;Signal;HPM_P1;HPM_P2
2022/05/14 13:22:13;;;;;;;6.07;2.25;;;;;;;;;;5164151;27;20417;-93
2022/05/14 13:24:51;;;;;;;2.72;1.42;;;;;;;;;;5118489;28;20066;-93
2022/05/14 13:27:27;;;;;;;4.15;2.30;;;;;;;;;;5136971;27;20029;-89
2022/05/14 13:30:19;;;;;;;4.60;2.25;;;;;;;;;;5135051;28;20118;-95
2022/05/14 13:32:46;;;;;;;4.82;1.88;;;;;;;;;;5093391;28;20115;-94
2022/05/14 13:38:05;;;;;;;7.35;2.70;;;;;;;;;;5053348;28;20027;-93
2022/05/14 13:40:44;;;;;;;5.80;2.40;;;;;;;;;;5053256;28;20100;-93
2022/05/14 13:43:12;;;;;;;5.22;1.80;;;;;;;;;;5052677;28;20041;-94
2022/05/14 13:45:39;;;;;;;9.20;2.08;;;;;;;;;;5052799;28;20462;-93
2022/05/14 13:48:12;;;;;;;5.38;1.67;;;;;;;;;;5052921;28;20037;-92
2022/05/14 13:50:41;;;;;;;4.32;1.52;;;;;;;;;;5076135;28;20044;-96
2022/05/14 13:53:08;;;;;;;5.18;1.50;;;;;;;;;;5080325;28;20025;-94
2022/05/14 13:55:39;;;;;;;4.32;1.63;;;;;;;;;;5080026;28;20025;-96
2022/05/14 13:58:07;;;;;;;5.20;1.45;;;;;;;;;;5080492;28;20116;-96
2022/05/14 14:00:41;;;;;;;6.90;1.80;;;;;;;;;;5080289;28;20092;-96
2022/05/14 14:03:18;;;;;;;2.92;1.67;;;;;;;;;;5068316;28;20124;-96
2022/05/14 14:05:46;;;;;;;2.75;1.52;;;;;;;;;;5070012;28;20008;-95
2022/05/14 14:08:13;;;;;;;6.30;1.50;;;;;;;;;;5084018;28;20029;-95
2022/05/14 14:10:39;;;;;;;6.43;1.30;;;;;;;;;;5103871;28;20429;-96
2022/05/14 14:13:06;;;;;;;2.60;1.30;;;;;;;;;;5103103;28;20020;-96
2022/05/14 14:15:35;;;;;;;5.25;1.63;;;;;;;;;;5102147;28;20026;-94
2022/05/14 14:18:04;;;;;;;4.80;1.60;;;;;;;;;;5101196;28;20052;-96
2022/05/14 14:23:36;;;;;;;5.70;2.20;;;;;;;;;;5124273;22;20055;-96
2022/05/14 14:26:02;;;;;;;8.75;1.85;;;;;;;;;;5107622;28;20043;-96
2022/05/14 14:28:30;;;;;;;3.55;1.35;;;;;;;;;;5108012;28;20325;-95
2022/05/14 14:30:56;;;;;;;5.13;1.63;;;;;;;;;;5102197;28;20084;-96
2022/05/14 14:33:22;;;;;;;5.22;1.75;;;;;;;;;;5102094;28;20333;-96
2022/05/14 14:35:48;;;;;;;5.53;1.60;;;;;;;;;;5101781;28;20020;-96
2022/05/14 14:38:15;;;;;;;6.95;1.67;;;;;;;;;;5108054;28;20020;-96
2022/05/14 14:40:41;;;;;;;6.88;1.50;;;;;;;;;;5105085;28;20039;-96
2022/05/14 14:43:08;;;;;;;5.22;1.70;;;;;;;;;;5107637;28;20024;-96
2022/05/14 14:45:34;;;;;;;7.30;1.55;;;;;;;;;;5106613;28;20028;-96
2022/05/14 14:48:01;;;;;;;10.55;1.80;;;;;;;;;;5106204;28;20028;-96
2022/05/14 14:50:28;;;;;;;3.83;1.25;;;;;;;;;;5104869;28;20418;-96
2022/05/14 14:53:06;;;;;;;6.10;1.50;;;;;;;;;;5106729;28;20054;-96
2022/05/14 14:55:33;;;;;;;6.45;1.30;;;;;;;;;;5108149;28;20119;-96
2022/05/14 14:58:00;;;;;;;4.30;1.23;;;;;;;;;;5109842;28;20422;-96
2022/05/14 15:00:32;;;;;;;7.95;1.40;;;;;;;;;;5108268;28;20032;-96
2022/05/14 15:03:09;;;;;;;4.80;1.45;;;;;;;;;;5110098;28;20115;-96
2022/05/14 15:05:40;;;;;;;4.93;1.20;;;;;;;;;;5113707;28;20032;-96
2022/05/14 15:08:09;;;;;;;5.53;1.25;;;;;;;;;;5113852;28;20088;-96
2022/05/14 15:10:36;;;;;;;10.75;1.30;;;;;;;;;;5094092;28;20058;-96
2022/05/14 15:13:04;;;;;;;5.47;1.27;;;;;;;;;;5093505;28;20028;-96
2022/05/14 15:15:30;;;;;;;1.95;1.05;;;;;;;;;;5109647;28;20043;-96
2022/05/14 15:17:56;;;;;;;5.53;1.10;;;;;;;;;;5093693;28;20028;-96
2022/05/14 15:20:23;;;;;;;3.33;1.30;;;;;;;;;;5111704;28;20032;-96
2022/05/14 15:22:49;;;;;;;8.60;1.20;;;;;;;;;;5110360;28;20032;-95
2022/05/14 15:25:17;;;;;;;4.03;1.08;;;;;;;;;;5111133;28;20059;-96
2022/05/14 15:27:43;;;;;;;2.80;1.20;;;;;;;;;;5111057;28;20024;-96
2022/05/14 15:30:10;;;;;;;3.63;1.08;;;;;;;;;;5108965;28;20020;-96
2022/05/14 15:32:36;;;;;;;1.75;1.10;;;;;;;;;;5110005;28;20051;-96
2022/05/14 15:35:05;;;;;;;7.60;1.50;;;;;;;;;;5110369;28;20031;-95
2022/05/14 15:37:32;;;;;;;5.80;1.50;;;;;;;;;;5111369;28;20056;-96
2022/05/14 15:43:03;;;;;;;4.30;1.33;;;;;;;;;;5110734;28;20053;-96
2022/05/14 15:45:31;;;;;;;5.45;1.40;;;;;;;;;;5110175;28;20494;-96
2022/05/14 15:48:00;;;;;;;2.85;1.38;;;;;;;;;;5109638;28;20031;-95
2022/05/14 15:50:28;;;;;;;3.22;1.05;;;;;;;;;;5110526;28;20065;-95
2022/05/14 15:55:42;;;;;;;3.25;1.35;;;;;;;;;;5111470;28;20035;-96
2022/05/14 15:58:09;;;;;;;3.97;1.00;;;;;;;;;;5111279;28;20020;-96
2022/05/14 16:00:35;;;;;;;8.57;1.48;;;;;;;;;;5109585;28;20024;-96
2022/05/14 16:03:01;;;;;;;5.72;1.40;;;;;;;;;;5114019;28;20050;-96
2022/05/14 16:05:29;;;;;;;5.05;1.40;;;;;;;;;;5111618;28;20036;-96
2022/05/14 16:07:55;;;;;;;5.60;1.17;;;;;;;;;;5110193;28;20032;-96
2022/05/14 16:15:56;;;;;;;5.97;1.20;;;;;;;;;;5108799;28;20058;-96
2022/05/14 17:05:52;;;;;;;4.82;1.38;;;;;;;;;;5075747;23;20069;-96
2022/05/14 17:08:20;;;;;;;4.05;1.10;;;;;;;;;;5010229;28;20034;-96
2022/05/14 17:10:47;;;;;;;4.60;1.15;;;;;;;;;;5011406;28;20030;-96
2022/05/14 17:13:14;;;;;;;4.97;1.25;;;;;;;;;;4995139;28;20030;-96
2022/05/14 17:15:41;;;;;;;7.40;1.38;;;;;;;;;;4980103;28;20102;-96
2022/05/14 17:18:11;;;;;;;6.40;1.48;;;;;;;;;;5012873;28;20048;-96
2022/05/14 17:20:38;;;;;;;3.10;1.30;;;;;;;;;;4978722;28;20030;-96
2022/05/14 17:25:55;;;;;;;2.95;1.05;;;;;;;;;;5014616;28;20045;-95
2022/05/14 17:28:22;;;;;;;4.88;1.33;;;;;;;;;;5011445;28;20105;-96
2022/05/14 17:30:48;;;;;;;5.05;1.30;;;;;;;;;;4990477;28;20117;-96
2022/05/14 17:33:14;;;;;;;3.70;1.20;;;;;;;;;;4988671;28;20027;-96
2022/05/14 17:35:40;;;;;;;5.10;1.50;;;;;;;;;;4975895;28;20035;-95
2022/05/14 17:40:51;;;;;;;9.10;1.80;;;;;;;;;;4998099;28;20134;-94
2022/05/14 17:43:17;;;;;;;3.20;1.27;;;;;;;;;;4997689;28;20436;-93
2022/05/14 17:45:44;;;;;;;4.28;1.73;;;;;;;;;;4998164;28;20022;-94
2022/05/14 17:48:10;;;;;;;10.98;1.60;;;;;;;;;;4997552;28;20436;-93
2022/05/14 17:50:36;;;;;;;10.23;2.08;;;;;;;;;;4980468;28;20298;-93
2022/05/14 17:53:03;;;;;;;6.90;1.80;;;;;;;;;;4997883;28;20029;-91
2022/05/14 17:55:30;;;;;;;8.43;2.90;;;;;;;;;;4981339;28;20036;-94
2022/05/14 17:57:57;;;;;;;5.38;1.85;;;;;;;;;;4983337;28;20041;-92
2022/05/14 18:00:24;;;;;;;7.30;1.45;;;;;;;;;;4984379;28;20117;-93
2022/05/14 18:02:51;;;;;;;3.72;1.42;;;;;;;;;;5001640;28;20022;-94
2022/05/14 18:05:18;;;;;;;3.47;1.40;;;;;;;;;;4984098;28;20408;-93
2022/05/14 18:07:45;;;;;;;6.85;2.00;;;;;;;;;;5001407;28;20027;-93
2022/05/14 18:10:12;;;;;;;8.13;1.63;;;;;;;;;;5001135;28;20109;-93
2022/05/14 18:12:38;;;;;;;4.18;1.42;;;;;;;;;;5001165;28;20022;-91
2022/05/14 18:15:05;;;;;;;8.45;2.10;;;;;;;;;;5001568;28;20026;-87
2022/05/14 18:17:31;;;;;;;8.52;2.08;;;;;;;;;;5001988;28;20022;-95
2022/05/14 18:19:59;;;;;;;4.35;1.92;;;;;;;;;;5005540;28;20050;-94
2022/05/14 18:22:26;;;;;;;7.40;2.63;;;;;;;;;;5001424;28;20164;-94
2022/05/14 18:24:52;;;;;;;7.85;3.88;;;;;;;;;;4967927;28;20408;-94
2022/05/14 18:27:19;;;;;;;10.32;2.40;;;;;;;;;;5002125;28;20034;-96
2022/05/14 18:29:47;;;;;;;6.40;1.48;;;;;;;;;;5007391;28;20031;-95
2022/05/14 18:32:15;;;;;;;6.57;1.40;;;;;;;;;;4988880;28;20404;-96
2022/05/14 18:34:43;;;;;;;5.70;1.52;;;;;;;;;;4988132;28;20062;-96
2022/05/14 18:37:11;;;;;;;5.90;1.40;;;;;;;;;;5004923;28;20109;-95
2022/05/14 18:39:38;;;;;;;8.10;2.00;;;;;;;;;;4986269;28;20023;-94
2022/05/14 18:42:05;;;;;;;5.30;1.17;;;;;;;;;;5001798;28;20027;-96
2022/05/14 18:44:33;;;;;;;12.00;1.60;;;;;;;;;;5000611;28;20029;-96
2022/05/14 18:46:59;;;;;;;6.65;1.50;;;;;;;;;;5000600;28;20025;-95
2022/05/14 18:49:25;;;;;;;7.13;1.60;;;;;;;;;;4983555;28;20580;-93
2022/05/14 18:51:51;;;;;;;6.65;2.13;;;;;;;;;;4983487;28;20029;-95
2022/05/14 18:54:17;;;;;;;3.65;1.35;;;;;;;;;;4984253;28;20066;-95
2022/05/14 18:56:43;;;;;;;8.63;1.70;;;;;;;;;;5000692;28;20022;-94
2022/05/14 18:59:09;;;;;;;5.78;1.50;;;;;;;;;;4983237;28;20025;-95
2022/05/14 19:01:37;;;;;;;3.60;1.33;;;;;;;;;;4983809;28;20034;-95
2022/05/14 19:09:33;;;;;;;5.85;1.50;;;;;;;;;;5000290;28;20045;-95
2022/05/14 19:11:59;;;;;;;12.20;1.50;;;;;;;;;;4999865;28;20030;-94
2022/05/14 19:14:25;;;;;;;6.05;1.45;;;;;;;;;;4999870;28;20068;-94
2022/05/14 19:16:51;;;;;;;5.38;1.70;;;;;;;;;;4983084;28;20026;-95
2022/05/14 19:19:18;;;;;;;8.02;1.95;;;;;;;;;;4982566;28;20099;-94
2022/05/14 19:21:45;;;;;;;6.18;1.60;;;;;;;;;;4999634;28;20018;-94
2022/05/14 19:24:13;;;;;;;11.18;2.13;;;;;;;;;;4999828;28;20026;-95
2022/05/14 19:26:39;;;;;;;8.80;1.67;;;;;;;;;;4999892;28;20023;-95
2022/05/14 19:29:05;;;;;;;3.28;1.50;;;;;;;;;;4999959;28;20077;-95
2022/05/14 19:31:32;;;;;;;5.57;1.60;;;;;;;;;;4999925;28;20034;-95
2022/05/14 19:33:58;;;;;;;10.13;1.83;;;;;;;;;;4999785;28;20053;-95
2022/05/14 19:36:24;;;;;;;8.85;1.90;;;;;;;;;;4999637;28;20034;-94
2022/05/14 19:38:51;;;;;;;6.63;1.85;;;;;;;;;;4999449;28;20026;-95
2022/05/14 19:41:27;;;;;;;8.25;1.95;;;;;;;;;;4982458;28;20049;-95
2022/05/14 19:43:55;;;;;;;9.85;1.80;;;;;;;;;;4999473;28;20026;-94
2022/05/14 19:46:21;;;;;;;8.07;1.75;;;;;;;;;;4999764;28;20027;-94
2022/05/14 19:48:49;;;;;;;4.97;1.98;;;;;;;;;;4982297;28;20030;-93
2022/05/14 19:51:15;;;;;;;11.55;1.98;;;;;;;;;;4982264;28;20042;-96
2022/05/14 19:53:42;;;;;;;8.45;1.65;;;;;;;;;;4999231;28;20041;-95
2022/05/14 19:56:09;;;;;;;8.75;2.00;;;;;;;;;;4999242;28;20033;-94
2022/05/14 19:58:38;;;;;;;17.20;2.65;;;;;;;;;;4999314;28;20416;-95
2022/05/14 20:01:05;;;;;;;12.85;1.95;;;;;;;;;;4999349;28;20023;-94
2022/05/14 20:03:31;;;;;;;17.95;2.03;;;;;;;;;;4999123;28;20026;-95
2022/05/14 20:05:58;;;;;;;12.90;2.03;;;;;;;;;;4981665;28;20046;-95
2022/05/14 20:08:24;;;;;;;14.98;1.95;;;;;;;;;;4998871;28;20077;-94
2022/05/14 20:10:50;;;;;;;11.60;2.85;;;;;;;;;;4981349;28;20042;-94
2022/05/14 20:13:18;;;;;;;9.07;2.22;;;;;;;;;;4982003;28;20069;-94
2022/05/14 20:15:44;;;;;;;10.15;2.22;;;;;;;;;;4981676;28;20022;-95
2022/05/14 20:20:55;;;;;;;14.45;2.30;;;;;;;;;;4998702;28;20084;-95
2022/05/14 20:23:29;;;;;;;9.75;1.98;;;;;;;;;;4981546;28;20045;-94
2022/05/14 20:25:59;;;;;;;8.48;2.33;;;;;;;;;;4998496;28;20464;-96
2022/05/14 20:28:25;;;;;;;10.63;2.53;;;;;;;;;;4998788;28;20377;-95
2022/05/14 20:30:51;;;;;;;5.85;1.88;;;;;;;;;;4998579;28;20030;-94
2022/05/14 20:33:17;;;;;;;12.27;1.88;;;;;;;;;;4998712;28;20022;-94
2022/05/14 20:35:44;;;;;;;10.93;2.30;;;;;;;;;;4981386;28;20038;-94
2022/05/14 20:38:10;;;;;;;16.80;1.90;;;;;;;;;;4998498;28;20034;-95
2022/05/14 20:40:37;;;;;;;13.20;2.20;;;;;;;;;;4981297;28;20038;-94
2022/05/14 20:43:04;;;;;;;11.65;2.20;;;;;;;;;;4998436;28;20030;-95
2022/05/14 20:45:30;;;;;;;13.77;2.33;;;;;;;;;;4980969;28;20027;-95
2022/05/14 20:47:56;;;;;;;6.88;2.15;;;;;;;;;;4998579;28;20413;-95
2022/05/14 20:50:22;;;;;;;8.25;2.42;;;;;;;;;;4998202;28;20038;-95
2022/05/14 20:52:48;;;;;;;8.55;2.20;;;;;;;;;;4998213;28;20023;-96
2022/05/14 20:55:16;;;;;;;7.40;2.03;;;;;;;;;;4997752;28;20030;-95
2022/05/14 20:57:43;;;;;;;10.25;2.50;;;;;;;;;;4998315;28;20286;-94
2022/05/14 21:00:10;;;;;;;10.10;2.17;;;;;;;;;;4998223;28;20060;-95
2022/05/14 21:02:36;;;;;;;5.93;1.88;;;;;;;;;;4998215;28;20029;-94
2022/05/14 21:05:03;;;;;;;15.07;2.10;;;;;;;;;;4981156;28;20039;-94
2022/05/14 21:07:29;;;;;;;6.25;2.47;;;;;;;;;;4980921;28;20034;-95
2022/05/14 21:13:17;;;;;;;11.85;2.15;;;;;;;;;;4998180;28;20077;-95
2022/05/14 21:15:43;;;;;;;8.88;2.45;;;;;;;;;;4998354;28;20027;-96
2022/05/14 21:18:09;;;;;;;7.72;1.95;;;;;;;;;;4998245;28;20130;-95
2022/05/14 21:20:35;;;;;;;17.10;2.60;;;;;;;;;;4998000;28;20026;-95
2022/05/14 21:23:02;;;;;;;24.85;3.42;;;;;;;;;;4997932;28;20034;-94
2022/05/14 21:26:05;;;;;;;19.77;2.75;;;;;;;;;;4980577;28;20045;-94
2022/05/14 21:28:31;;;;;;;26.77;3.05;;;;;;;;;;4998017;28;20034;-95
2022/05/14 21:30:57;;;;;;;17.40;2.40;;;;;;;;;;4997895;28;20324;-94
2022/05/14 21:33:23;;;;;;;19.17;2.85;;;;;;;;;;5001554;28;20027;-95
2022/05/14 21:38:40;;;;;;;20.58;3.22;;;;;;;;;;5002091;28;20485;-95
2022/05/14 21:41:06;;;;;;;16.83;2.80;;;;;;;;;;5001702;28;20038;-93
2022/05/14 21:43:32;;;;;;;19.77;3.05;;;;;;;;;;4968625;28;20038;-94
2022/05/14 21:45:58;;;;;;;21.85;3.00;;;;;;;;;;5001975;28;20026;-94
2022/05/14 21:48:24;;;;;;;20.88;3.28;;;;;;;;;;4984570;28;20030;-95
2022/05/14 21:50:51;;;;;;;21.65;3.28;;;;;;;;;;5001790;28;20026;-95
2022/05/14 21:53:18;;;;;;;10.88;2.50;;;;;;;;;;4984394;28;20033;-95
2022/05/14 21:55:46;;;;;;;17.08;3.97;;;;;;;;;;4984570;28;20033;-96
2022/05/14 21:58:12;;;;;;;15.13;3.03;;;;;;;;;;5001859;28;20019;-94
2022/05/14 22:00:38;;;;;;;13.27;2.83;;;;;;;;;;5001593;28;20105;-96
2022/05/14 22:03:07;;;;;;;10.65;2.42;;;;;;;;;;5001417;28;20391;-95
2022/05/14 22:05:35;;;;;;;13.27;2.72;;;;;;;;;;5001223;28;20042;-94
2022/05/14 22:08:02;;;;;;;7.88;2.63;;;;;;;;;;4984345;28;20034;-96
2022/05/14 22:10:29;;;;;;;9.68;2.25;;;;;;;;;;5001240;28;20018;-94
2022/05/14 22:12:55;;;;;;;8.77;2.60;;;;;;;;;;4984137;28;20298;-95
2022/05/14 22:15:21;;;;;;;6.25;3.10;;;;;;;;;;4984049;28;20049;-95
2022/05/14 22:17:47;;;;;;;9.57;3.10;;;;;;;;;;4984057;28;20022;-95
2022/05/14 22:20:15;;;;;;;8.00;3.00;;;;;;;;;;5000992;28;20046;-95
2022/05/14 22:22:41;;;;;;;7.50;2.90;;;;;;;;;;4983792;28;20413;-93
2022/05/14 22:25:08;;;;;;;9.48;3.47;;;;;;;;;;4983709;28;20058;-95
2022/05/14 22:27:35;;;;;;;8.10;3.58;;;;;;;;;;4983792;28;20033;-94
2022/05/14 22:30:01;;;;;;;10.27;3.78;;;;;;;;;;5000903;28;20027;-95
2022/05/14 22:32:27;;;;;;;8.23;3.47;;;;;;;;;;4983655;28;20037;-95
2022/05/14 22:34:53;;;;;;;9.85;4.25;;;;;;;;;;4983728;28;20031;-94
2022/05/14 22:37:19;;;;;;;8.07;3.95;;;;;;;;;;5000759;28;20018;-94
2022/05/14 22:42:30;;;;;;;11.77;4.43;;;;;;;;;;5000495;28;20482;-94
2022/05/14 22:44:56;;;;;;;8.40;3.88;;;;;;;;;;5000728;28;20309;-95
2022/05/14 22:47:22;;;;;;;8.80;4.32;;;;;;;;;;4983452;28;20022;-94
2022/05/14 22:49:48;;;;;;;9.98;4.18;;;;;;;;;;5000502;28;20042;-94
2022/05/14 22:52:14;;;;;;;11.13;4.65;;;;;;;;;;4983210;28;20034;-96
2022/05/14 22:54:40;;;;;;;12.70;4.47;;;;;;;;;;5000646;28;20023;-94
2022/05/14 22:57:07;;;;;;;10.80;4.18;;;;;;;;;;5000686;28;20023;-94
2022/05/14 22:59:33;;;;;;;8.35;4.07;;;;;;;;;;5000407;28;20029;-95
2022/05/14 23:01:59;;;;;;;6.47;3.70;;;;;;;;;;5000268;28;20487;-94
2022/05/14 23:04:25;;;;;;;7.47;3.90;;;;;;;;;;5000256;28;20026;-94
2022/05/14 23:06:54;;;;;;;7.97;4.15;;;;;;;;;;5000020;28;20046;-94
2022/05/14 23:09:20;;;;;;;8.23;4.38;;;;;;;;;;5000056;28;20049;-95
2022/05/14 23:11:46;;;;;;;10.30;4.22;;;;;;;;;;4982884;28;20031;-94
2022/05/14 23:14:12;;;;;;;6.30;3.72;;;;;;;;;;4983170;28;20023;-94
2022/05/14 23:16:38;;;;;;;5.55;4.30;;;;;;;;;;5000176;28;20042;-95
2022/05/14 23:19:04;;;;;;;8.50;4.45;;;;;;;;;;5000016;28;20065;-95
2022/05/14 23:21:30;;;;;;;10.68;3.70;;;;;;;;;;4982840;28;20085;-94
2022/05/14 23:23:56;;;;;;;6.93;4.03;;;;;;;;;;5000132;28;20029;-94
2022/05/14 23:26:22;;;;;;;8.23;4.80;;;;;;;;;;5000080;28;20109;-94
2022/05/14 23:28:48;;;;;;;13.07;5.03;;;;;;;;;;4982828;28;20030;-95
2022/05/14 23:31:14;;;;;;;11.40;4.88;;;;;;;;;;4999657;28;20488;-93
2022/05/14 23:33:40;;;;;;;10.35;4.88;;;;;;;;;;5000119;28;20316;-94
2022/05/14 23:42:06;;;;;;;11.50;4.55;;;;;;;;;;4940306;29;20033;-94
2022/05/14 23:44:32;;;;;;;15.25;4.90;;;;;;;;;;4924064;29;20027;-95
2022/05/14 23:46:59;;;;;;;10.32;5.18;;;;;;;;;;4939937;29;20128;-93
2022/05/14 23:49:25;;;;;;;10.93;4.78;;;;;;;;;;4940066;29;20327;-95
2022/05/14 23:51:51;;;;;;;9.65;5.05;;;;;;;;;;4939925;29;20375;-94
2022/05/14 23:54:17;;;;;;;9.30;4.00;;;;;;;;;;4923111;29;20072;-95
2022/05/14 23:56:43;;;;;;;7.88;4.57;;;;;;;;;;4939785;29;20032;-93
